Makassar/Sultan Hasanuddin International Airport

Airport
ICAO code: 
WAAA
IATA Code: 
UPG
Summary
ICAO Region: 
APAC
Territory: 
Location: 
Maros, South Sulawesi
Serving: 
Makassar
Elevation: 
47 ft
Coordinates: 
Aerial View: 
5° 4' 39.889" S, 119° 32' 58.144" E
Metar
Observation
WAAA 171530Z 09003KT 8000 FEW019 25/24 Q1010 NOSIG
Station
Ujung Pandang / Hasanuddin
Date/Time
2022-01-17 15:30:00
Wind direction
90°
Wind speed
03 kts
Lowest cloud amount
few clouds
Temperature
25°C
Dew point
24°C
Humidity
94%
QNH
1010 hPa
Weather condition
n/a

Description

Airport located 12nm north east of the city of Makassar, South Sulawesi, Indonesia.

Climatology

Tropical Rainforest climate (Köppen climate classification Af) - almost no distinct seasons, average daily temperature around 27°C throughout the year. Extensive cloud cover and heavy rainfall prevent temperatures from rising much over 33°C. The diurnal temperature change is between 2°C and 5°C which is greater than the annual temperature range of 2°C. Rainfall is heavy and is usually convectional and in the afternoon.

Runways

Designator Length Width Surface Rops
3/21 0 0 Yes/Yes
13/31 2500 45 ASP Yes/Yes
Airport map: 
Aerial View: 

SKYbrary Partners:

Safety knowledge contributed by: